Time;durP1;ratioP1;P1;durP2;ratioP2;P2;SDS_P1;SDS_P2;PMS_P1;PMS_P2;Temp;Humidity;BMP_temperature;BMP_pressure;BME280_temperature;BME280_humidity;BME280_pressure;Samples;Min_cycle;Max_cycle;Signal;HPM_P1;HPM_P2
2024/02/20 00:00:16;;;;;;;58.28;49.30;;;8.60;82.20;;;;;;4986441;28;114153;-53
2024/02/20 00:02:42;;;;;;;56.78;49.45;;;8.80;81.20;;;;;;4987399;28;112548;-54
2024/02/20 00:05:09;;;;;;;62.47;53.58;;;8.90;81.40;;;;;;4987692;28;112977;-53
2024/02/20 00:07:36;;;;;;;63.30;54.90;;;9.00;81.10;;;;;;4986513;28;114888;-53
2024/02/20 00:10:03;;;;;;;59.20;52.70;;;9.00;81.00;;;;;;4986013;28;113845;-54
2024/02/20 00:12:29;;;;;;;64.90;56.28;;;9.10;80.80;;;;;;4987516;28;112683;-53
2024/02/20 00:14:57;;;;;;;61.10;52.88;;;9.00;81.70;;;;;;4987268;28;112842;-53
2024/02/20 00:17:23;;;;;;;63.25;55.33;;;8.90;81.90;;;;;;4986200;28;113744;-53
2024/02/20 00:19:48;;;;;;;67.25;59.83;;;8.80;82.20;;;;;;4984948;28;113782;-54
2024/02/20 00:22:14;;;;;;;64.50;57.28;;;8.80;82.60;;;;;;4988031;28;112735;-53
2024/02/20 00:24:39;;;;;;;62.75;55.30;;;8.80;82.90;;;;;;4987263;28;112746;-54
2024/02/20 00:27:05;;;;;;;59.78;51.55;;;8.90;82.20;;;;;;4986138;28;113743;-53
2024/02/20 00:29:31;;;;;;;62.22;54.92;;;9.00;81.30;;;;;;4985913;28;113790;-53
2024/02/20 00:31:57;;;;;;;59.85;53.10;;;8.90;81.20;;;;;;4987177;28;112629;-53
2024/02/20 00:34:22;;;;;;;69.05;59.20;;;8.80;81.90;;;;;;4987324;28;112689;-53
2024/02/20 00:36:49;;;;;;;66.57;57.92;;;8.70;82.30;;;;;;4986151;28;113177;-53
2024/02/20 00:39:14;;;;;;;76.03;62.33;;;8.70;82.90;;;;;;4986412;28;113092;-53
2024/02/20 00:41:40;;;;;;;72.03;63.90;;;8.60;83.60;;;;;;4988663;28;112766;-53
2024/02/20 00:44:06;;;;;;;74.05;64.45;;;8.70;83.70;;;;;;4990822;28;112710;-53
2024/02/20 00:46:31;;;;;;;75.22;63.70;;;8.60;83.90;;;;;;4989589;28;113396;-54
2024/02/20 00:48:58;;;;;;;70.43;62.13;;;8.60;84.00;;;;;;4989605;28;112653;-53
2024/02/20 00:51:24;;;;;;;71.72;62.22;;;8.60;83.90;;;;;;4990708;28;112536;-53
2024/02/20 00:53:50;;;;;;;76.93;63.92;;;8.60;83.70;;;;;;4990593;28;112764;-53
2024/02/20 00:56:16;;;;;;;74.35;63.15;;;8.60;83.50;;;;;;4989444;28;113615;-54
2024/02/20 00:58:45;;;;;;;77.10;65.80;;;8.60;83.40;;;;;;4989352;28;113040;-53
2024/02/20 01:01:14;;;;;;;76.43;65.05;;;8.60;83.50;;;;;;4990544;28;112802;-53
2024/02/20 01:03:42;;;;;;;74.85;65.93;;;8.60;83.70;;;;;;4990334;28;112691;-54
2024/02/20 01:06:09;;;;;;;77.45;64.95;;;8.60;83.50;;;;;;4989457;28;113192;-53
2024/02/20 01:08:36;;;;;;;70.18;61.53;;;8.60;83.30;;;;;;4988469;28;113862;-54
2024/02/20 01:11:04;;;;;;;72.28;62.85;;;8.70;83.10;;;;;;4990445;28;112580;-53
2024/02/20 01:13:31;;;;;;;71.38;61.33;;;8.60;83.10;;;;;;4990254;28;112767;-53
2024/02/20 01:15:57;;;;;;;72.25;64.38;;;8.70;82.90;;;;;;4989108;28;113592;-53
2024/02/20 01:18:22;;;;;;;69.82;59.53;;;8.60;82.90;;;;;;4989157;28;113356;-53
2024/02/20 01:20:48;;;;;;;68.13;59.88;;;8.70;82.70;;;;;;4990286;28;112623;-53
2024/02/20 01:23:14;;;;;;;73.10;62.58;;;8.70;82.70;;;;;;4990725;28;112641;-54
2024/02/20 01:25:41;;;;;;;69.00;59.05;;;8.70;82.90;;;;;;4988988;28;113352;-53
2024/02/20 01:28:07;;;;;;;70.72;61.92;;;8.70;82.90;;;;;;4988881;28;112747;-53
2024/02/20 01:30:33;;;;;;;67.07;59.70;;;8.70;83.00;;;;;;4989902;28;112978;-54
2024/02/20 01:33:00;;;;;;;64.03;56.85;;;8.80;82.50;;;;;;4990023;28;112736;-53
2024/02/20 01:35:26;;;;;;;67.45;58.03;;;8.90;81.40;;;;;;4989029;28;113237;-53
2024/02/20 01:37:53;;;;;;;65.22;58.30;;;8.90;81.20;;;;;;4988107;28;113746;-53
2024/02/20 01:40:22;;;;;;;68.28;59.22;;;8.80;81.70;;;;;;4989971;28;112645;-53
2024/02/20 01:43:01;;;;;;;66.95;57.85;;;8.80;82.20;;;;;;4988524;28;112771;-53
2024/02/20 01:45:31;;;;;;;66.10;58.38;;;8.80;82.30;;;;;;4987738;28;114012;-53
2024/02/20 01:48:00;;;;;;;67.35;58.80;;;8.90;81.90;;;;;;4988705;28;114027;-53
2024/02/20 01:50:33;;;;;;;66.32;59.33;;;8.80;82.10;;;;;;4989279;28;112912;-54
2024/02/20 01:52:59;;;;;;;62.67;55.45;;;8.70;82.90;;;;;;4989858;28;112604;-54
2024/02/20 01:55:26;;;;;;;64.78;55.50;;;8.90;82.00;;;;;;4974686;28;114825;-53
2024/02/20 01:57:52;;;;;;;62.20;54.88;;;9.10;81.30;;;;;;4988592;28;112668;-54
2024/02/20 02:00:18;;;;;;;63.38;56.08;;;8.90;81.90;;;;;;4989752;28;112681;-54
2024/02/20 02:02:44;;;;;;;63.35;53.85;;;8.90;82.10;;;;;;4989387;28;112718;-54
2024/02/20 02:05:09;;;;;;;66.72;56.45;;;9.10;81.60;;;;;;4988596;28;113599;-53
2024/02/20 02:07:35;;;;;;;69.50;56.90;;;8.90;82.00;;;;;;4988669;28;112557;-53
2024/02/20 02:10:01;;;;;;;61.92;54.72;;;8.90;82.20;;;;;;4988979;28;112577;-53
2024/02/20 02:12:27;;;;;;;62.88;56.13;;;8.90;82.60;;;;;;4989144;28;112845;-54
2024/02/20 02:14:53;;;;;;;62.75;55.95;;;8.90;82.50;;;;;;4988365;28;113702;-53
2024/02/20 02:17:19;;;;;;;62.05;54.75;;;8.80;82.40;;;;;;4988174;28;113175;-53
2024/02/20 02:19:45;;;;;;;64.20;57.22;;;8.80;82.50;;;;;;4989150;28;112746;-53
2024/02/20 02:22:10;;;;;;;76.03;63.13;;;8.80;82.80;;;;;;4989264;28;112655;-53
2024/02/20 02:24:36;;;;;;;77.65;60.88;;;8.90;82.70;;;;;;4988245;28;113234;-53
2024/02/20 02:27:06;;;;;;;65.10;56.97;;;8.90;82.70;;;;;;4988181;28;112872;-54
2024/02/20 02:29:32;;;;;;;71.25;57.92;;;8.90;82.80;;;;;;4973803;28;112584;-54
2024/02/20 02:31:58;;;;;;;65.75;58.55;;;8.90;82.60;;;;;;4989012;28;112707;-53
2024/02/20 02:34:27;;;;;;;66.70;56.70;;;8.90;82.70;;;;;;4988007;28;113763;-53
2024/02/20 02:36:53;;;;;;;65.13;56.88;;;8.90;82.90;;;;;;4988062;28;112713;-53
2024/02/20 02:39:20;;;;;;;63.00;55.47;;;9.00;82.80;;;;;;4989071;28;112664;-53
2024/02/20 02:41:48;;;;;;;66.25;59.25;;;8.90;83.00;;;;;;4989028;28;112639;-54
2024/02/20 02:44:14;;;;;;;66.10;58.90;;;8.90;83.20;;;;;;4987832;28;113260;-53
2024/02/20 02:46:40;;;;;;;61.58;54.83;;;9.00;83.20;;;;;;4987667;28;113693;-53
2024/02/20 02:49:07;;;;;;;63.90;57.00;;;9.00;83.20;;;;;;5004502;28;115029;-53
2024/02/20 02:51:33;;;;;;;61.33;54.67;;;9.00;83.20;;;;;;4987113;28;113268;-53
2024/02/20 02:53:59;;;;;;;61.05;54.28;;;9.00;83.40;;;;;;4987465;28;114472;-53
2024/02/20 02:56:25;;;;;;;61.08;53.88;;;8.90;83.60;;;;;;4987684;28;113350;-53
2024/02/20 02:58:51;;;;;;;59.42;53.13;;;9.00;83.30;;;;;;4988748;28;112548;-54
2024/02/20 03:01:16;;;;;;;58.10;51.80;;;9.00;83.20;;;;;;4988330;28;112911;-53
2024/02/20 03:03:42;;;;;;;62.22;55.55;;;9.00;83.10;;;;;;4986707;28;113079;-53
2024/02/20 03:06:09;;;;;;;61.03;54.05;;;9.10;83.30;;;;;;4987769;28;112600;-53
2024/02/20 03:08:38;;;;;;;58.30;50.83;;;9.00;83.70;;;;;;4988141;28;112614;-53
2024/02/20 03:11:07;;;;;;;55.60;49.72;;;9.00;83.60;;;;;;4988512;28;112581;-54
2024/02/20 03:13:34;;;;;;;57.08;51.08;;;9.20;82.80;;;;;;4987022;28;114523;-53
2024/02/20 03:16:04;;;;;;;58.00;51.17;;;9.10;83.00;;;;;;4987619;28;113571;-53
2024/02/20 03:18:35;;;;;;;57.22;51.03;;;9.00;83.30;;;;;;4988448;28;112667;-53
2024/02/20 03:21:01;;;;;;;55.80;49.93;;;9.10;83.00;;;;;;4988708;28;112719;-53
2024/02/20 03:23:29;;;;;;;59.28;52.20;;;9.10;82.90;;;;;;4987650;28;113260;-53
2024/02/20 03:25:55;;;;;;;59.58;53.42;;;9.00;83.20;;;;;;4987405;28;112834;-53
2024/02/20 03:28:21;;;;;;;56.15;50.15;;;8.80;83.80;;;;;;4988188;28;112559;-53
2024/02/20 03:30:48;;;;;;;56.17;50.25;;;8.70;84.40;;;;;;4988074;28;112901;-54
2024/02/20 03:33:13;;;;;;;54.65;48.78;;;8.70;84.40;;;;;;4987099;28;114479;-54
2024/02/20 03:35:39;;;;;;;54.33;48.63;;;8.60;84.60;;;;;;4986938;28;113778;-54
2024/02/20 03:38:05;;;;;;;55.20;48.80;;;8.70;84.10;;;;;;4988267;28;112865;-53
2024/02/20 03:40:30;;;;;;;58.17;52.08;;;8.70;84.00;;;;;;4988069;28;112864;-53
2024/02/20 03:42:57;;;;;;;60.15;51.35;;;8.40;84.60;;;;;;4986891;28;113300;-53
2024/02/20 03:45:23;;;;;;;57.90;50.15;;;8.30;85.40;;;;;;4985535;28;115781;-53
2024/02/20 03:47:48;;;;;;;57.97;51.65;;;8.20;85.60;;;;;;4988092;28;112861;-53
2024/02/20 03:50:14;;;;;;;59.78;53.28;;;8.20;85.70;;;;;;4988137;28;112707;-53
2024/02/20 03:52:40;;;;;;;59.90;53.65;;;8.10;85.70;;;;;;4986607;28;114448;-53
2024/02/20 03:55:07;;;;;;;56.75;49.83;;;8.00;86.30;;;;;;4986742;28;113904;-54
2024/02/20 03:57:34;;;;;;;56.17;49.13;;;8.00;86.20;;;;;;4987926;28;112839;-53
2024/02/20 04:00:00;;;;;;;54.72;48.83;;;8.00;86.50;;;;;;4987650;28;112697;-53
2024/02/20 04:02:26;;;;;;;53.05;47.15;;;8.00;86.20;;;;;;4986592;28;114630;-54
2024/02/20 04:04:53;;;;;;;55.38;49.42;;;8.00;86.20;;;;;;4986670;28;112891;-53
2024/02/20 04:07:19;;;;;;;52.40;46.60;;;8.00;86.40;;;;;;4988012;28;112884;-53
2024/02/20 04:09:45;;;;;;;50.65;45.35;;;8.00;86.20;;;;;;4987068;28;112830;-54
2024/02/20 04:12:10;;;;;;;50.35;44.90;;;8.00;86.00;;;;;;4986633;28;113124;-53
2024/02/20 04:14:36;;;;;;;47.55;42.45;;;8.10;85.80;;;;;;4986688;28;114208;-53
2024/02/20 04:17:02;;;;;;;48.50;43.35;;;8.10;85.70;;;;;;4991176;28;112535;-54
2024/02/20 04:19:28;;;;;;;48.30;43.25;;;8.10;85.70;;;;;;4991242;28;112687;-53
2024/02/20 04:21:53;;;;;;;43.95;39.33;;;8.20;85.40;;;;;;4990001;28;113177;-53
2024/02/20 04:24:19;;;;;;;46.47;41.67;;;8.20;85.20;;;;;;4990265;28;113901;-53
2024/02/20 04:26:44;;;;;;;46.60;41.65;;;8.20;85.20;;;;;;4990949;28;112733;-54
2024/02/20 04:29:10;;;;;;;46.65;41.08;;;8.30;85.10;;;;;;4991200;28;112733;-53
2024/02/20 04:31:36;;;;;;;42.33;37.83;;;8.30;85.10;;;;;;4989845;28;115662;-53
2024/02/20 04:34:01;;;;;;;44.33;38.78;;;8.30;85.10;;;;;;4989610;28;113782;-53
2024/02/20 04:36:28;;;;;;;43.00;38.40;;;8.30;85.20;;;;;;4990975;28;112437;-53
2024/02/20 04:38:57;;;;;;;42.83;38.35;;;8.30;85.00;;;;;;4990841;28;112677;-53
2024/02/20 04:41:26;;;;;;;43.75;39.08;;;8.30;84.70;;;;;;4989654;28;113478;-53
2024/02/20 04:43:52;;;;;;;42.38;37.97;;;8.30;84.60;;;;;;4989480;28;112878;-53
2024/02/20 04:46:18;;;;;;;45.33;40.63;;;8.30;84.80;;;;;;4990805;28;112516;-53
2024/02/20 04:48:43;;;;;;;44.65;39.78;;;8.30;84.90;;;;;;4991017;28;114010;-53
2024/02/20 04:51:09;;;;;;;45.83;40.33;;;8.30;84.90;;;;;;4989586;28;113212;-53
2024/02/20 04:53:35;;;;;;;44.58;39.58;;;8.30;84.90;;;;;;4989431;28;113149;-54
2024/02/20 04:56:00;;;;;;;45.35;40.65;;;8.30;84.70;;;;;;4990538;28;112708;-53
2024/02/20 04:58:26;;;;;;;43.05;38.55;;;8.20;85.00;;;;;;4990617;28;113148;-53
2024/02/20 05:00:52;;;;;;;41.13;36.88;;;8.30;84.90;;;;;;4989500;28;113343;-53
2024/02/20 05:03:18;;;;;;;43.97;39.45;;;8.30;84.90;;;;;;4989608;28;113181;-54
2024/02/20 05:05:43;;;;;;;41.33;36.92;;;8.20;84.70;;;;;;4990635;28;112491;-53
2024/02/20 05:08:09;;;;;;;41.38;37.20;;;8.20;84.80;;;;;;4989972;28;112732;-54
2024/02/20 05:10:34;;;;;;;42.92;38.45;;;8.20;84.80;;;;;;4989548;28;113201;-53
2024/02/20 05:13:00;;;;;;;40.17;35.95;;;8.20;84.80;;;;;;4989498;28;112636;-53
2024/02/20 05:15:26;;;;;;;40.55;36.17;;;8.30;84.40;;;;;;4990363;28;113010;-53
2024/02/20 05:17:51;;;;;;;37.63;33.60;;;8.30;83.80;;;;;;4990317;28;112718;-53
2024/02/20 05:20:17;;;;;;;40.38;36.28;;;8.30;83.70;;;;;;4988867;28;114602;-53
2024/02/20 05:22:43;;;;;;;40.85;36.35;;;8.30;83.80;;;;;;4989384;28;113805;-53
2024/02/20 05:25:08;;;;;;;40.17;36.15;;;8.30;84.30;;;;;;4990085;28;113023;-53
2024/02/20 05:27:34;;;;;;;40.55;36.08;;;8.20;84.40;;;;;;4989618;28;112723;-53
2024/02/20 05:30:00;;;;;;;39.95;35.42;;;8.10;84.60;;;;;;4989133;28;113425;-53
2024/02/20 05:32:25;;;;;;;41.55;36.88;;;8.10;84.60;;;;;;4989056;28;112823;-53
2024/02/20 05:34:51;;;;;;;40.47;34.13;;;8.20;84.50;;;;;;4990100;28;112607;-53
2024/02/20 05:37:17;;;;;;;38.50;34.53;;;8.30;84.40;;;;;;5005014;28;112874;-53
2024/02/20 05:39:43;;;;;;;36.70;32.75;;;8.30;84.40;;;;;;5004151;28;114523;-53
2024/02/20 05:42:08;;;;;;;37.28;33.33;;;8.50;83.50;;;;;;4988929;28;112853;-53
2024/02/20 05:44:34;;;;;;;38.78;34.67;;;8.40;83.40;;;;;;4990094;28;112560;-54
2024/02/20 05:47:00;;;;;;;35.60;32.13;;;8.30;83.30;;;;;;4990028;28;112753;-53
2024/02/20 05:49:25;;;;;;;36.65;32.92;;;8.20;83.70;;;;;;4988728;28;113659;-53
2024/02/20 05:51:51;;;;;;;35.25;31.60;;;8.30;83.60;;;;;;4988565;28;112805;-53
2024/02/20 05:54:17;;;;;;;38.40;34.28;;;8.30;83.70;;;;;;4989624;28;112509;-53
2024/02/20 05:56:43;;;;;;;35.97;32.38;;;8.20;83.90;;;;;;4989349;28;112766;-54
2024/02/20 05:59:09;;;;;;;39.65;35.47;;;8.20;83.90;;;;;;4988763;28;113774;-53
2024/02/20 06:01:35;;;;;;;40.80;34.38;;;8.10;84.10;;;;;;4988617;28;113067;-53
2024/02/20 06:04:04;;;;;;;42.35;35.50;;;8.10;84.50;;;;;;4989723;28;112500;-53
2024/02/20 06:06:30;;;;;;;38.47;33.97;;;8.10;84.80;;;;;;4989237;28;112735;-53
2024/02/20 06:08:56;;;;;;;41.50;34.65;;;8.10;84.60;;;;;;4986459;28;114943;-54
2024/02/20 06:11:22;;;;;;;39.67;34.28;;;8.10;84.60;;;;;;4988203;28;114202;-53
2024/02/20 06:13:49;;;;;;;42.40;37.15;;;8.20;84.40;;;;;;4989454;28;112655;-53
2024/02/20 06:16:15;;;;;;;44.33;39.63;;;8.20;84.70;;;;;;4989315;28;112850;-53
2024/02/20 06:18:41;;;;;;;42.85;38.35;;;8.20;84.80;;;;;;4988110;28;114386;-53
2024/02/20 06:21:08;;;;;;;49.65;40.90;;;8.30;84.70;;;;;;4988091;28;112696;-53
2024/02/20 06:23:37;;;;;;;44.67;39.70;;;8.40;84.40;;;;;;4989577;28;112537;-54
2024/02/20 06:26:04;;;;;;;44.60;39.35;;;8.40;84.30;;;;;;4989431;28;112694;-53
2024/02/20 06:28:32;;;;;;;41.75;37.33;;;8.50;84.20;;;;;;4988114;28;113244;-54
2024/02/20 06:30:59;;;;;;;41.42;36.92;;;8.60;83.50;;;;;;4988028;28;112763;-54
2024/02/20 06:33:25;;;;;;;44.80;39.03;;;8.80;82.90;;;;;;4989144;28;112838;-54
2024/02/20 06:35:51;;;;;;;46.88;39.85;;;8.90;82.90;;;;;;4988886;28;112798;-53
2024/02/20 06:38:16;;;;;;;46.08;39.75;;;8.90;82.90;;;;;;4987238;28;113253;-54
2024/02/20 06:40:42;;;;;;;44.03;38.70;;;8.90;83.00;;;;;;4987605;28;112575;-54
2024/02/20 06:43:08;;;;;;;42.92;38.35;;;9.00;82.40;;;;;;4989162;28;112937;-54
2024/02/20 06:45:33;;;;;;;45.17;40.28;;;9.10;82.40;;;;;;4988966;28;113072;-53
2024/02/20 06:47:59;;;;;;;43.17;38.00;;;9.30;82.10;;;;;;4988000;28;113306;-54
2024/02/20 06:50:25;;;;;;;45.15;38.58;;;9.40;81.60;;;;;;4987605;28;112868;-54
2024/02/20 06:52:51;;;;;;;49.83;38.67;;;9.60;81.00;;;;;;4988582;28;113113;-54
2024/02/20 06:55:17;;;;;;;49.00;39.38;;;9.70;80.90;;;;;;4988869;28;112687;-53
2024/02/20 06:57:43;;;;;;;57.13;38.35;;;9.80;80.70;;;;;;4987644;28;114752;-53
2024/02/20 07:00:14;;;;;;;50.30;38.78;;;9.80;81.10;;;;;;4987688;28;112924;-53
2024/02/20 07:02:41;;;;;;;50.53;40.25;;;9.80;81.10;;;;;;4988725;28;112582;-54
2024/02/20 07:05:08;;;;;;;52.58;40.55;;;9.80;81.30;;;;;;4988375;28;112728;-54
2024/02/20 07:07:34;;;;;;;51.03;40.35;;;9.90;80.70;;;;;;4987512;28;114116;-54
2024/02/20 07:10:00;;;;;;;46.15;38.60;;;9.80;80.70;;;;;;4987023;28;113739;-54
2024/02/20 07:12:26;;;;;;;42.55;37.70;;;9.90;80.40;;;;;;4988311;28;114424;-54
2024/02/20 07:14:52;;;;;;;44.33;37.47;;;10.20;79.80;;;;;;4988163;28;112646;-53
2024/02/20 07:17:18;;;;;;;49.45;39.70;;;10.20;79.90;;;;;;4986913;28;113719;-54
2024/02/20 07:19:43;;;;;;;44.38;38.50;;;10.30;79.40;;;;;;4987310;28;113708;-54
2024/02/20 07:22:09;;;;;;;42.63;38.13;;;10.30;79.60;;;;;;4988287;28;112875;-54
2024/02/20 07:24:35;;;;;;;45.92;37.35;;;10.30;79.30;;;;;;4988834;28;113314;-54
2024/02/20 07:27:01;;;;;;;41.55;37.20;;;10.40;78.80;;;;;;4987211;28;113161;-54
2024/02/20 07:29:27;;;;;;;46.53;38.90;;;10.40;78.80;;;;;;4987111;28;112809;-54
2024/02/20 07:31:54;;;;;;;47.47;38.70;;;10.30;79.60;;;;;;4987665;28;112684;-54
2024/02/20 07:34:20;;;;;;;42.13;37.75;;;10.30;80.00;;;;;;4988133;28;112818;-53
2024/02/20 07:36:48;;;;;;;48.80;39.47;;;10.20;79.70;;;;;;4985643;28;114583;-54
2024/02/20 07:39:14;;;;;;;42.53;38.08;;;10.20;80.20;;;;;;4985263;28;116043;-54
2024/02/20 07:41:40;;;;;;;47.60;39.08;;;10.10;80.30;;;;;;4988020;28;113056;-54
2024/02/20 07:44:06;;;;;;;47.33;40.85;;;10.20;80.40;;;;;;4987705;28;112666;-54
2024/02/20 07:46:32;;;;;;;44.80;40.00;;;10.20;80.60;;;;;;4986566;28;114764;-55
2024/02/20 07:48:58;;;;;;;47.10;40.60;;;10.20;80.30;;;;;;4986906;28;112727;-54
2024/02/20 07:51:24;;;;;;;43.40;37.92;;;10.30;80.20;;;;;;4987504;28;112820;-54
2024/02/20 07:53:50;;;;;;;45.35;39.33;;;10.30;79.90;;;;;;4987361;28;112747;-54
2024/02/20 07:56:23;;;;;;;46.55;39.40;;;10.30;79.70;;;;;;4986631;28;114505;-54
2024/02/20 07:58:49;;;;;;;104.68;40.97;;;10.20;80.40;;;;;;4986908;28;113139;-54
2024/02/20 08:01:14;;;;;;;50.85;39.90;;;10.20;80.10;;;;;;4987739;28;112614;-54
2024/02/20 08:03:40;;;;;;;50.03;39.58;;;10.20;80.10;;;;;;4979125;28;112850;-54
2024/02/20 08:06:07;;;;;;;45.47;38.17;;;10.10;80.20;;;;;;4985152;28;114471;-54
2024/02/20 08:08:33;;;;;;;44.40;38.95;;;10.20;79.60;;;;;;4985453;28;113863;-54
2024/02/20 08:11:00;;;;;;;45.30;38.53;;;10.20;79.80;;;;;;4985581;28;112710;-54
2024/02/20 08:13:26;;;;;;;44.63;39.88;;;10.30;79.60;;;;;;4987473;28;112732;-54
2024/02/20 08:15:52;;;;;;;42.97;36.05;;;10.60;79.20;;;;;;4986094;28;113591;-54
2024/02/20 08:18:17;;;;;;;37.65;33.72;;;10.90;78.00;;;;;;4985380;28;112658;-54
2024/02/20 08:20:43;;;;;;;39.20;34.15;;;11.30;76.90;;;;;;4987316;28;112970;-54
2024/02/20 08:23:09;;;;;;;36.80;32.97;;;11.70;75.80;;;;;;4988056;28;113096;-54
2024/02/20 08:25:34;;;;;;;35.75;31.20;;;11.90;74.70;;;;;;4986310;28;113153;-54
2024/02/20 08:28:00;;;;;;;36.85;30.85;;;12.20;74.20;;;;;;4986290;28;112561;-54
2024/02/20 08:30:26;;;;;;;35.53;30.83;;;12.50;73.60;;;;;;4987296;28;113013;-54
2024/02/20 08:32:52;;;;;;;32.55;29.05;;;12.80;72.30;;;;;;4987126;28;112751;-54
2024/02/20 08:35:18;;;;;;;31.92;28.42;;;13.00;71.40;;;;;;4985677;28;114139;-53
2024/02/20 08:37:46;;;;;;;31.50;28.27;;;13.30;70.80;;;;;;4986322;28;112775;-54
2024/02/20 08:40:15;;;;;;;32.78;27.67;;;13.50;69.20;;;;;;4986821;28;113128;-53
2024/02/20 08:42:41;;;;;;;30.67;27.48;;;13.80;68.60;;;;;;4986823;28;112641;-54
2024/02/20 08:45:08;;;;;;;30.70;27.50;;;14.20;67.70;;;;;;4984527;28;113249;-54
2024/02/20 08:47:34;;;;;;;28.30;25.38;;;14.40;67.10;;;;;;4984196;28;113246;-55
2024/02/20 08:50:00;;;;;;;25.65;22.80;;;14.90;65.30;;;;;;4985767;28;112625;-55
2024/02/20 08:52:26;;;;;;;26.63;22.50;;;15.20;63.70;;;;;;4985859;28;113359;-55
2024/02/20 08:54:52;;;;;;;25.02;22.60;;;15.50;62.60;;;;;;4986165;28;113322;-55
2024/02/20 08:57:17;;;;;;;24.80;22.00;;;15.80;62.10;;;;;;4985691;28;112738;-54
2024/02/20 08:59:45;;;;;;;23.67;20.95;;;16.00;61.00;;;;;;4986708;28;112520;-54
2024/02/20 09:02:10;;;;;;;20.63;18.50;;;15.90;60.00;;;;;;4987927;28;112670;-54
2024/02/20 09:04:37;;;;;;;22.30;20.10;;;16.20;59.50;;;;;;4989546;28;113315;-55
2024/02/20 09:07:03;;;;;;;21.67;19.38;;;16.40;58.10;;;;;;4989002;28;113591;-54
2024/02/20 09:09:28;;;;;;;20.13;18.02;;;16.60;57.50;;;;;;4990092;28;112510;-54
2024/02/20 09:11:54;;;;;;;18.83;16.98;;;17.10;56.60;;;;;;4990048;28;112871;-54
2024/02/20 09:14:21;;;;;;;19.10;17.15;;;17.40;53.90;;;;;;4989409;28;113172;-55
2024/02/20 09:16:47;;;;;;;18.10;16.27;;;17.50;55.30;;;;;;4988651;28;113792;-55
2024/02/20 09:19:13;;;;;;;18.65;16.63;;;17.60;52.60;;;;;;4990022;28;112734;-54
2024/02/20 09:21:39;;;;;;;17.40;15.70;;;17.60;52.90;;;;;;4990248;28;113266;-54
2024/02/20 09:24:05;;;;;;;16.85;15.25;;;17.90;53.50;;;;;;4975580;28;113224;-54
2024/02/20 09:26:31;;;;;;;17.13;15.43;;;18.20;52.60;;;;;;4989013;28;112624;-55
2024/02/20 09:28:57;;;;;;;17.60;15.60;;;18.20;52.10;;;;;;4989740;28;112655;-55
2024/02/20 09:31:22;;;;;;;16.98;15.15;;;18.30;52.30;;;;;;4990036;28;112713;-56
2024/02/20 09:33:49;;;;;;;17.92;15.88;;;18.60;51.50;;;;;;4988755;28;113872;-55
2024/02/20 09:36:14;;;;;;;20.35;16.92;;;18.40;51.70;;;;;;4988300;28;112809;-56
2024/02/20 09:38:40;;;;;;;18.92;16.95;;;19.90;49.40;;;;;;4989632;28;112750;-54
2024/02/20 09:41:07;;;;;;;18.38;15.70;;;22.50;44.00;;;;;;4989677;28;112687;-54
2024/02/20 09:43:33;;;;;;;17.05;15.50;;;25.20;40.00;;;;;;4980904;28;114505;-56
2024/02/20 09:46:07;;;;;;;20.65;16.60;;;27.40;35.20;;;;;;4988174;28;114221;-56
2024/02/20 09:48:34;;;;;;;17.65;16.00;;;28.60;32.70;;;;;;4989584;28;112998;-56
2024/02/20 09:51:01;;;;;;;16.55;15.05;;;29.40;32.00;;;;;;4989213;28;113129;-54
2024/02/20 09:53:29;;;;;;;13.52;12.23;;;31.10;31.00;;;;;;4987318;28;113310;-55
2024/02/20 09:55:56;;;;;;;12.95;11.85;;;31.80;28.00;;;;;;4988584;28;114371;-54
2024/02/20 09:58:22;;;;;;;13.25;11.80;;;31.70;28.80;;;;;;4989533;28;113310;-54
2024/02/20 10:00:48;;;;;;;11.90;10.90;;;33.40;27.30;;;;;;5005092;28;114156;-55
2024/02/20 10:03:14;;;;;;;11.70;10.77;;;32.90;26.80;;;;;;4988486;28;113503;-55
2024/02/20 10:05:47;;;;;;;12.32;10.85;;;32.40;26.60;;;;;;4988671;28;113069;-55
2024/02/20 10:08:12;;;;;;;10.38;9.50;;;33.90;25.70;;;;;;4988730;28;112493;-56
2024/02/20 10:10:40;;;;;;;9.43;8.73;;;34.60;24.90;;;;;;4990515;28;112690;-55
2024/02/20 10:13:06;;;;;;;9.63;8.70;;;34.70;25.00;;;;;;4982432;28;114394;-55
2024/02/20 10:15:32;;;;;;;9.00;8.40;;;36.20;24.10;;;;;;4988957;28;113912;-55
2024/02/20 10:18:01;;;;;;;9.55;8.65;;;36.90;23.30;;;;;;4990227;28;112835;-55
2024/02/20 10:20:29;;;;;;;9.90;9.20;;;36.70;24.00;;;;;;4989711;28;112905;-56
2024/02/20 10:23:13;;;;;;;10.57;9.77;;;37.30;22.60;;;;;;4989522;28;113302;-55
2024/02/20 10:25:39;;;;;;;10.05;9.35;;;37.00;22.60;;;;;;4988582;28;113946;-54
2024/02/20 10:28:05;;;;;;;10.65;9.75;;;36.20;23.30;;;;;;4990158;28;112703;-55
2024/02/20 10:30:31;;;;;;;10.50;9.68;;;36.60;23.10;;;;;;4989799;28;112856;-55
2024/02/20 10:32:58;;;;;;;10.00;9.20;;;37.10;22.00;;;;;;4988746;28;113282;-55
2024/02/20 10:35:25;;;;;;;10.30;9.50;;;37.20;22.50;;;;;;4988883;28;112872;-57
2024/02/20 10:38:04;;;;;;;10.40;9.50;;;36.90;23.10;;;;;;4989701;28;114234;-56
2024/02/20 10:40:31;;;;;;;10.52;9.63;;;37.90;22.40;;;;;;4989674;28;113520;-56
2024/02/20 10:42:57;;;;;;;9.90;9.10;;;37.90;21.50;;;;;;4976159;28;114416;-56
2024/02/20 10:45:24;;;;;;;9.75;8.80;;;36.80;22.90;;;;;;4987328;28;113691;-55
2024/02/20 10:47:52;;;;;;;10.90;9.98;;;37.90;22.60;;;;;;4988334;28;112803;-55
2024/02/20 10:50:18;;;;;;;10.63;9.73;;;38.90;20.80;;;;;;4987226;28;112997;-55
2024/02/20 10:52:44;;;;;;;9.50;8.80;;;39.30;20.70;;;;;;4987090;28;113493;-56
2024/02/20 10:55:11;;;;;;;9.98;8.93;;;40.30;20.40;;;;;;4974932;28;113502;-55
2024/02/20 10:57:42;;;;;;;9.45;8.75;;;40.80;19.90;;;;;;4989640;28;112643;-56
2024/02/20 11:00:09;;;;;;;8.95;8.25;;;39.90;20.10;;;;;;4989527;28;112735;-58
2024/02/20 11:02:48;;;;;;;9.88;9.00;;;39.70;20.40;;;;;;4988355;28;113430;-55
2024/02/20 11:05:16;;;;;;;10.00;9.27;;;39.00;20.70;;;;;;4988370;28;113308;-55
2024/02/20 11:07:43;;;;;;;8.35;7.75;;;39.30;21.00;;;;;;4989618;28;113342;-56
2024/02/20 11:10:16;;;;;;;9.02;8.32;;;40.70;19.60;;;;;;4989549;28;113015;-56
2024/02/20 11:12:41;;;;;;;10.60;9.57;;;40.40;20.40;;;;;;4987551;28;113590;-56
2024/02/20 11:15:20;;;;;;;11.85;10.57;;;40.30;20.70;;;;;;4988017;28;113646;-55
2024/02/20 11:17:56;;;;;;;11.43;10.50;;;41.80;19.50;;;;;;4988512;28;112532;-57
2024/02/20 11:20:25;;;;;;;12.00;10.93;;;41.40;19.40;;;;;;4985351;28;113009;-55
2024/02/20 11:22:52;;;;;;;10.57;9.68;;;40.60;20.10;;;;;;4983578;28;115200;-56
2024/02/20 11:25:28;;;;;;;10.32;9.43;;;39.20;20.30;;;;;;4984793;28;112543;-55
2024/02/20 11:27:54;;;;;;;10.95;10.07;;;40.30;19.70;;;;;;4989255;28;112610;-55
2024/02/20 11:30:24;;;;;;;11.55;10.70;;;39.60;20.50;;;;;;4986838;28;113011;-56
2024/02/20 11:32:55;;;;;;;11.18;10.38;;;39.90;20.00;;;;;;4986717;28;114288;-56
2024/02/20 11:35:30;;;;;;;11.98;11.10;;;39.60;20.80;;;;;;4987405;28;113425;-58
2024/02/20 11:37:56;;;;;;;11.27;10.40;;;38.20;21.30;;;;;;4987518;28;112708;-56
2024/02/20 11:40:31;;;;;;;11.57;10.77;;;40.60;20.10;;;;;;4986950;28;112784;-57
2024/02/20 11:43:05;;;;;;;11.98;11.07;;;41.30;19.40;;;;;;4985586;28;114613;-57
2024/02/20 11:45:33;;;;;;;12.52;11.63;;;39.40;20.80;;;;;;4986962;28;114432;-56
2024/02/20 11:48:09;;;;;;;13.50;12.50;;;39.90;20.50;;;;;;4987707;28;112774;-57
2024/02/20 11:50:40;;;;;;;13.70;12.70;;;40.20;20.30;;;;;;4988009;28;112617;-57
2024/02/20 11:53:13;;;;;;;13.68;12.57;;;41.00;19.80;;;;;;4986755;28;114488;-56
2024/02/20 11:55:43;;;;;;;13.60;12.57;;;41.90;19.40;;;;;;4986756;28;112626;-56
2024/02/20 11:58:13;;;;;;;14.32;13.32;;;41.00;20.00;;;;;;4986024;28;113033;-56
2024/02/20 12:00:40;;;;;;;14.57;13.57;;;39.70;20.40;;;;;;4987793;28;113146;-56
2024/02/20 12:03:07;;;;;;;14.63;13.55;;;39.00;21.00;;;;;;4985577;28;113433;-56
2024/02/20 12:05:40;;;;;;;13.80;12.80;;;39.30;20.50;;;;;;4986967;28;113097;-56
2024/02/20 12:08:17;;;;;;;14.30;13.20;;;41.80;19.40;;;;;;4987406;28;112540;-56
2024/02/20 12:10:46;;;;;;;13.43;12.52;;;42.70;19.00;;;;;;4987624;28;113027;-57
2024/02/20 12:13:20;;;;;;;15.60;14.52;;;42.50;18.60;;;;;;4986217;28;114503;-56
2024/02/20 12:15:51;;;;;;;16.92;15.70;;;41.00;19.60;;;;;;4986536;28;114319;-56
2024/02/20 12:18:31;;;;;;;14.83;13.83;;;41.50;19.30;;;;;;4987227;28;112727;-56
2024/02/20 12:21:08;;;;;;;15.32;14.20;;;39.90;20.20;;;;;;4987667;28;112550;-57